Time;durP1;ratioP1;P1;durP2;ratioP2;P2;SDS_P1;SDS_P2;PMS_P1;PMS_P2;Temp;Humidity;BMP_temperature;BMP_pressure;BME280_temperature;BME280_humidity;BME280_pressure;Samples;Min_cycle;Max_cycle;Signal;HPM_P1;HPM_P2
2021/07/08 00:00:38;;;;;;;;;;;16.70;99.90;;;;;;8224297;28;19914;-66
2021/07/08 00:04:43;;;;;;;;;;;16.60;99.90;;;;;;8224105;28;19906;-66
2021/07/08 00:08:43;;;;;;;;;;;16.70;99.90;;;;;;8223116;28;19914;-66
2021/07/08 00:12:44;;;;;;;;;;;16.70;99.90;;;;;;8224747;28;19981;-66
2021/07/08 00:16:44;;;;;;;;;;;16.80;99.90;;;;;;8289409;28;20307;-66
2021/07/08 00:20:46;;;;;;;;;;;16.70;99.90;;;;;;8224287;28;20352;-65
2021/07/08 00:24:46;;;;;;;;;;;16.70;99.90;;;;;;8223736;28;19906;-66
2021/07/08 00:28:47;;;;;;;;;;;16.70;99.90;;;;;;8222827;28;19951;-66
2021/07/08 00:32:48;;;;;;;;;;;16.60;99.90;;;;;;8287731;28;19906;-66
2021/07/08 00:36:48;;;;;;;;;;;16.50;99.90;;;;;;8267915;28;20402;-66
2021/07/08 00:40:49;;;;;;;;;;;16.60;99.90;;;;;;8223257;28;19910;-66
2021/07/08 00:44:49;;;;;;;;;;;16.50;99.90;;;;;;8223259;28;19945;-66
2021/07/08 00:48:50;;;;;;;;;;;16.50;99.90;;;;;;8222836;28;19952;-66
2021/07/08 00:52:50;;;;;;;;;;;16.50;99.90;;;;;;8306139;28;19906;-66
2021/07/08 00:56:51;;;;;;;;;;;16.50;99.90;;;;;;8222847;28;19906;-66
2021/07/08 01:00:51;;;;;;;;;;;16.50;99.90;;;;;;8223086;28;19922;-66
2021/07/08 01:04:52;;;;;;;;;;;16.40;99.90;;;;;;8222465;28;19914;-66
2021/07/08 01:08:53;;;;;;;;;;;16.50;99.90;;;;;;8222626;28;19914;-66
2021/07/08 01:12:53;;;;;;;;;;;16.60;99.90;;;;;;8222921;28;19910;-66
2021/07/08 01:16:54;;;;;;;;;;;16.50;99.90;;;;;;8222230;28;19910;-66
2021/07/08 01:20:55;;;;;;;;;;;16.60;99.90;;;;;;8295290;28;20004;-66
2021/07/08 01:24:55;;;;;;;;;;;16.50;99.90;;;;;;8228385;28;19955;-66
2021/07/08 01:28:56;;;;;;;;;;;16.60;99.90;;;;;;8227801;28;19910;-66
2021/07/08 01:32:57;;;;;;;;;;;16.50;99.90;;;;;;8228028;28;20363;-66
2021/07/08 01:36:58;;;;;;;;;;;16.70;99.90;;;;;;8227285;28;20529;-66
2021/07/08 01:40:58;;;;;;;;;;;16.60;99.90;;;;;;8227722;28;19910;-66
2021/07/08 01:44:59;;;;;;;;;;;16.50;99.90;;;;;;8227505;28;19937;-66
2021/07/08 01:48:59;;;;;;;;;;;16.50;99.90;;;;;;8227169;28;19950;-66
2021/07/08 01:53:00;;;;;;;;;;;16.50;99.90;;;;;;8227657;28;20368;-66
2021/07/08 01:57:00;;;;;;;;;;;16.60;99.90;;;;;;8293938;28;20338;-66
2021/07/08 02:01:01;;;;;;;;;;;16.60;99.90;;;;;;8226711;28;19952;-66
2021/07/08 02:05:02;;;;;;;;;;;16.60;99.90;;;;;;8226866;28;19972;-66
2021/07/08 02:09:05;;;;;;;;;;;16.60;99.90;;;;;;8227043;28;20013;-66
2021/07/08 02:13:05;;;;;;;;;;;16.70;99.90;;;;;;8226729;28;19906;-66
2021/07/08 02:17:06;;;;;;;;;;;16.80;99.90;;;;;;8226188;28;20358;-66
2021/07/08 02:21:06;;;;;;;;;;;16.90;99.90;;;;;;8292000;28;19910;-66
2021/07/08 02:25:07;;;;;;;;;;;16.80;99.90;;;;;;8226217;28;19937;-66
2021/07/08 02:29:09;;;;;;;;;;;16.70;99.90;;;;;;8225289;28;20368;-66
2021/07/08 02:33:10;;;;;;;;;;;16.70;99.90;;;;;;8226130;28;20288;-66
2021/07/08 02:37:10;;;;;;;;;;;16.80;99.90;;;;;;8292878;28;19910;-66
2021/07/08 02:41:11;;;;;;;;;;;16.80;99.90;;;;;;8292777;28;19951;-66
2021/07/08 02:45:11;;;;;;;;;;;16.90;99.90;;;;;;8225727;28;19921;-66
2021/07/08 02:49:12;;;;;;;;;;;16.90;99.90;;;;;;8226276;28;19917;-66
2021/07/08 02:53:13;;;;;;;;;;;16.90;99.90;;;;;;8226991;28;19906;-66
2021/07/08 02:57:13;;;;;;;;;;;16.90;99.90;;;;;;8292402;28;20046;-66
2021/07/08 03:01:14;;;;;;;;;;;16.80;99.90;;;;;;8225551;28;19981;-66
2021/07/08 03:05:14;;;;;;;;;;;16.90;99.90;;;;;;8225453;28;19997;-66
2021/07/08 03:09:15;;;;;;;;;;;16.70;99.90;;;;;;8224977;28;19910;-66
2021/07/08 03:13:15;;;;;;;;;;;16.60;99.90;;;;;;8225490;28;19906;-66
2021/07/08 03:17:16;;;;;;;;;;;16.60;99.90;;;;;;8224535;28;19945;-66
2021/07/08 03:21:16;;;;;;;;;;;16.70;99.90;;;;;;8225013;28;19910;-66
2021/07/08 03:25:17;;;;;;;;;;;16.60;99.90;;;;;;8224902;28;19953;-66
2021/07/08 03:29:18;;;;;;;;;;;16.30;99.90;;;;;;8225314;28;20295;-66
2021/07/08 03:33:19;;;;;;;;;;;16.20;99.90;;;;;;8204887;28;19935;-66
2021/07/08 03:37:19;;;;;;;;;;;16.40;99.90;;;;;;8224299;28;20440;-66
2021/07/08 03:41:19;;;;;;;;;;;16.40;99.90;;;;;;8223132;28;20540;-67
2021/07/08 03:45:20;;;;;;;;;;;16.30;99.90;;;;;;8224419;28;19906;-67
2021/07/08 03:49:21;;;;;;;;;;;16.50;99.90;;;;;;8282350;28;19910;-66
2021/07/08 03:53:21;;;;;;;;;;;16.60;99.90;;;;;;8290315;28;19917;-66
2021/07/08 03:57:22;;;;;;;;;;;16.50;99.90;;;;;;8221013;28;19916;-66
2021/07/08 04:01:22;;;;;;;;;;;16.60;99.90;;;;;;8223644;28;19921;-66
2021/07/08 04:05:23;;;;;;;;;;;16.60;99.90;;;;;;8201317;28;20297;-66
2021/07/08 04:09:23;;;;;;;;;;;16.50;99.90;;;;;;8206238;28;19910;-66
2021/07/08 04:13:24;;;;;;;;;;;16.40;99.90;;;;;;8223836;28;19913;-66
2021/07/08 04:17:25;;;;;;;;;;;16.30;99.90;;;;;;8306212;28;20284;-67
2021/07/08 04:21:25;;;;;;;;;;;16.50;99.90;;;;;;8222051;28;19917;-66
2021/07/08 04:25:26;;;;;;;;;;;16.70;99.90;;;;;;8222334;28;19913;-66
2021/07/08 04:29:26;;;;;;;;;;;16.80;99.90;;;;;;8223437;28;19906;-66
2021/07/08 04:33:27;;;;;;;;;;;16.90;99.90;;;;;;8213911;28;19946;-66
2021/07/08 04:37:28;;;;;;;;;;;17.00;99.90;;;;;;8199653;28;19917;-66
2021/07/08 04:41:28;;;;;;;;;;;16.90;99.90;;;;;;8214097;28;19918;-66
2021/07/08 04:45:29;;;;;;;;;;;17.00;99.90;;;;;;8220089;28;19914;-66
2021/07/08 04:49:29;;;;;;;;;;;16.70;99.90;;;;;;8219260;28;19917;-66
2021/07/08 04:53:30;;;;;;;;;;;16.50;99.90;;;;;;8212154;28;19933;-66
2021/07/08 04:57:30;;;;;;;;;;;16.50;99.90;;;;;;8213639;28;19910;-66
2021/07/08 05:01:31;;;;;;;;;;;16.40;99.90;;;;;;8224831;28;19917;-67
2021/07/08 05:05:31;;;;;;;;;;;16.50;99.90;;;;;;8218683;28;19909;-69
2021/07/08 05:09:32;;;;;;;;;;;16.30;99.90;;;;;;8228073;28;19910;-68
2021/07/08 05:13:32;;;;;;;;;;;16.40;99.90;;;;;;8228513;28;19920;-68
2021/07/08 05:17:33;;;;;;;;;;;16.30;99.90;;;;;;8228106;28;20577;-68
2021/07/08 05:21:34;;;;;;;;;;;16.30;99.90;;;;;;8211128;28;20584;-67
2021/07/08 05:25:34;;;;;;;;;;;16.40;99.90;;;;;;8197806;28;20013;-68
2021/07/08 05:29:35;;;;;;;;;;;16.70;99.90;;;;;;8196611;28;19911;-68
2021/07/08 05:33:35;;;;;;;;;;;16.80;99.90;;;;;;8204514;28;19906;-68
2021/07/08 05:37:36;;;;;;;;;;;17.00;99.90;;;;;;8295208;28;19925;-68
2021/07/08 05:41:36;;;;;;;;;;;17.10;99.90;;;;;;8290723;28;19968;-63
2021/07/08 05:45:37;;;;;;;;;;;17.10;99.90;;;;;;8206540;28;19935;-63
2021/07/08 05:49:38;;;;;;;;;;;17.10;99.90;;;;;;8222853;28;19910;-64
2021/07/08 05:53:38;;;;;;;;;;;17.10;99.90;;;;;;8227461;28;19960;-64
2021/07/08 05:57:46;;;;;;;;;;;16.90;99.90;;;;;;8217005;28;19914;-63
2021/07/08 06:01:47;;;;;;;;;;;16.80;99.90;;;;;;8217064;28;20381;-62
2021/07/08 06:05:48;;;;;;;;;;;16.80;99.90;;;;;;8205389;28;19961;-62
2021/07/08 06:09:49;;;;;;;;;;;16.70;99.90;;;;;;8194959;28;19996;-63
2021/07/08 06:13:49;;;;;;;;;;;16.80;99.90;;;;;;8225153;28;20291;-62
2021/07/08 06:17:50;;;;;;;;;;;17.00;99.90;;;;;;8226506;28;19941;-63
2021/07/08 06:21:50;;;;;;;;;;;16.80;99.90;;;;;;8224237;28;19967;-63
2021/07/08 06:25:51;;;;;;;;;;;16.70;99.90;;;;;;8224952;28;19910;-63
2021/07/08 06:29:51;;;;;;;;;;;17.00;99.90;;;;;;8210255;28;19972;-63
2021/07/08 06:33:52;;;;;;;;;;;16.80;99.90;;;;;;8222869;28;20387;-63
2021/07/08 06:37:52;;;;;;;;;;;16.90;99.90;;;;;;8225216;28;19913;-63
2021/07/08 06:41:53;;;;;;;;;;;17.10;99.90;;;;;;8197324;28;20308;-63
2021/07/08 06:45:53;;;;;;;;;;;17.50;99.90;;;;;;8211171;28;19971;-63
2021/07/08 06:49:53;;;;;;;;;;;17.80;99.90;;;;;;8220028;28;19963;-63
2021/07/08 06:53:55;;;;;;;;;;;18.00;99.90;;;;;;8225578;28;19910;-63
2021/07/08 06:57:55;;;;;;;;;;;18.10;99.90;;;;;;8292216;28;19913;-63
2021/07/08 07:01:56;;;;;;;;;;;18.00;99.90;;;;;;8224782;28;19914;-63
2021/07/08 07:05:56;;;;;;;;;;;18.00;99.90;;;;;;8220612;28;19917;-62
2021/07/08 07:09:57;;;;;;;;;;;17.80;99.90;;;;;;8201052;28;19911;-63
2021/07/08 07:13:57;;;;;;;;;;;17.80;99.90;;;;;;8206396;28;19974;-64
2021/07/08 07:17:58;;;;;;;;;;;17.90;99.90;;;;;;8203974;28;19922;-62
2021/07/08 07:22:01;;;;;;;;;;;18.00;99.90;;;;;;8221925;28;19989;-64
2021/07/08 07:26:01;;;;;;;;;;;17.80;99.90;;;;;;8217501;28;20283;-63
2021/07/08 07:30:05;;;;;;;;;;;17.80;99.90;;;;;;8225380;28;19910;-63
2021/07/08 07:34:05;;;;;;;;;;;17.80;99.90;;;;;;8283824;28;20284;-63
2021/07/08 07:38:11;;;;;;;;;;;17.90;99.90;;;;;;8218228;28;19910;-63
2021/07/08 07:42:12;;;;;;;;;;;17.90;99.90;;;;;;8219417;28;19914;-64
2021/07/08 07:46:12;;;;;;;;;;;17.70;99.90;;;;;;8201082;28;19922;-64
2021/07/08 07:50:13;;;;;;;;;;;17.60;99.90;;;;;;8220086;28;19917;-63
2021/07/08 07:54:13;;;;;;;;;;;17.40;99.90;;;;;;8221707;28;20356;-63
2021/07/08 07:58:13;;;;;;;;;;;17.20;99.90;;;;;;8220877;28;19910;-64
2021/07/08 08:02:14;;;;;;;;;;;17.10;99.90;;;;;;8222221;28;19918;-64
2021/07/08 08:10:48;;;;;;;;;;;17.10;99.90;;;;;;8251219;28;19932;-63
2021/07/08 08:14:48;;;;;;;;;;;17.20;99.90;;;;;;8218418;28;19914;-63
2021/07/08 08:18:49;;;;;;;;;;;17.20;99.90;;;;;;8220983;28;19940;-63
2021/07/08 08:22:49;;;;;;;;;;;17.30;99.90;;;;;;8289093;28;19918;-63
2021/07/08 08:26:52;;;;;;;;;;;17.00;99.90;;;;;;8224926;28;19906;-63
2021/07/08 08:30:53;;;;;;;;;;;17.00;99.90;;;;;;8281777;28;19933;-62
2021/07/08 08:34:54;;;;;;;;;;;17.00;99.90;;;;;;8221701;28;19910;-63
2021/07/08 08:38:54;;;;;;;;;;;17.00;99.90;;;;;;8234042;28;20315;-62
2021/07/08 08:42:55;;;;;;;;;;;17.20;99.90;;;;;;8234559;28;19909;-63
2021/07/08 08:46:56;;;;;;;;;;;17.00;99.90;;;;;;8234358;28;19945;-63
2021/07/08 08:50:56;;;;;;;;;;;17.00;99.90;;;;;;8233968;28;20295;-63
2021/07/08 08:54:57;;;;;;;;;;;16.80;99.90;;;;;;8216469;28;19917;-64
2021/07/08 08:58:57;;;;;;;;;;;16.90;99.90;;;;;;8204756;28;20475;-63
2021/07/08 09:03:03;;;;;;;;;;;16.90;99.90;;;;;;8225664;28;19918;-63
2021/07/08 09:07:22;;;;;;;;;;;16.90;99.90;;;;;;8202127;29;19906;-63
2021/07/08 09:11:26;;;;;;;;;;;16.70;99.90;;;;;;8202048;29;20418;-63
2021/07/08 09:15:26;;;;;;;;;;;16.70;99.90;;;;;;8217268;28;19917;-63
2021/07/08 09:19:28;;;;;;;;;;;16.80;99.90;;;;;;8268016;28;19985;-63
2021/07/08 09:23:29;;;;;;;;;;;17.00;99.90;;;;;;8279734;28;19914;-63
2021/07/08 09:27:29;;;;;;;;;;;16.90;99.90;;;;;;8222567;28;19972;-63
2021/07/08 09:31:30;;;;;;;;;;;17.00;99.90;;;;;;8201680;29;19933;-64
2021/07/08 09:35:34;;;;;;;;;;;17.00;99.90;;;;;;8223678;28;19956;-63
2021/07/08 09:39:39;;;;;;;;;;;16.90;99.90;;;;;;8212906;28;20048;-63
2021/07/08 09:43:40;;;;;;;;;;;17.20;99.90;;;;;;8216739;28;20006;-63
2021/07/08 09:47:41;;;;;;;;;;;17.30;99.90;;;;;;8196691;28;19906;-63
2021/07/08 09:51:44;;;;;;;;;;;17.40;99.90;;;;;;8218097;28;19920;-63
2021/07/08 10:00:19;;;;;;;;;;;18.00;99.90;;;;;;8261523;22;19921;-66
2021/07/08 10:04:19;;;;;;;;;;;17.40;99.90;;;;;;8349224;28;20046;-70
2021/07/08 10:08:21;;;;;;;;;;;17.30;99.90;;;;;;8329058;28;19951;-69
2021/07/08 10:12:22;;;;;;;;;;;17.40;99.90;;;;;;8343640;28;19915;-69
2021/07/08 10:16:23;;;;;;;;;;;17.40;99.90;;;;;;8344220;28;19905;-68
2021/07/08 10:20:24;;;;;;;;;;;17.20;99.90;;;;;;8362220;28;20033;-70
2021/07/08 10:24:25;;;;;;;;;;;17.20;99.90;;;;;;8361082;28;19911;-68
2021/07/08 10:28:26;;;;;;;;;;;17.20;99.90;;;;;;8359216;28;20607;-67
2021/07/08 10:32:27;;;;;;;;;;;17.20;99.90;;;;;;8358621;28;20434;-67
2021/07/08 10:36:31;;;;;;;;;;;17.00;99.90;;;;;;8352325;28;20168;-67
2021/07/08 10:40:32;;;;;;;;;;;17.30;99.90;;;;;;8328881;28;19909;-68
2021/07/08 10:44:35;;;;;;;;;;;17.30;99.90;;;;;;8328769;28;19909;-67
2021/07/08 10:48:46;;;;;;;15.70;8.73;;;17.80;99.90;;;;;;8324264;28;20416;-67
2021/07/08 10:52:47;;;;;;;;;;;18.00;99.90;;;;;;8336494;28;20029;-69
2021/07/08 10:56:48;;;;;;;;;;;18.00;99.90;;;;;;8360858;28;20298;-67
2021/07/08 11:00:49;;;;;;;;;;;18.30;99.90;;;;;;8361102;28;19913;-66
2021/07/08 11:04:50;;;;;;;;;;;18.50;99.90;;;;;;8361064;28;19904;-67
2021/07/08 11:08:53;;;;;;;;;;;18.60;99.90;;;;;;8330150;28;19920;-64
2021/07/08 11:12:53;;;;;;;;;;;18.60;99.90;;;;;;8327594;28;19967;-64
2021/07/08 11:16:58;;;;;;;;;;;18.30;99.90;;;;;;8327710;28;20008;-64
2021/07/08 11:20:59;;;;;;;;;;;17.90;99.90;;;;;;8335227;28;20010;-64
2021/07/08 11:25:00;;;;;;;;;;;17.60;99.90;;;;;;8349210;28;19913;-65
2021/07/08 11:29:00;;;;;;;;;;;17.70;99.90;;;;;;8341405;28;19908;-64
2021/07/08 11:33:02;;;;;;;;;;;17.50;99.90;;;;;;8338893;28;19930;-64
2021/07/08 11:37:15;;;;;;;;;;;17.50;99.90;;;;;;8338359;28;20024;-64
2021/07/08 11:41:15;;;;;;;;;;;17.70;99.90;;;;;;8348662;28;19916;-64
2021/07/08 11:45:20;;;;;;;;;;;17.30;99.90;;;;;;8329165;28;20401;-65
2021/07/08 11:49:21;;;;;;;;;;;17.10;99.90;;;;;;8353336;28;20000;-63
2021/07/08 11:53:22;;;;;;;;;;;17.10;99.90;;;;;;8345943;28;19905;-64
2021/07/08 11:57:22;;;;;;;;;;;16.90;99.90;;;;;;8340829;28;19962;-64
2021/07/08 12:01:23;;;;;;;;;;;16.80;99.90;;;;;;8357364;28;20226;-64
2021/07/08 12:05:24;;;;;;;;;;;16.70;99.90;;;;;;8343731;28;20056;-63
2021/07/08 12:09:26;;;;;;;;;;;16.80;99.90;;;;;;8349295;28;19905;-63
2021/07/08 12:13:27;;;;;;;;;;;17.00;99.90;;;;;;8336896;28;19909;-64
2021/07/08 12:17:28;;;;;;;;;;;17.10;99.90;;;;;;8353970;28;19911;-64
2021/07/08 12:21:33;;;;;;;;;;;17.40;99.90;;;;;;8339332;28;19912;-63
2021/07/08 12:25:33;;;;;;;;;;;17.40;99.90;;;;;;8340417;28;19905;-64
2021/07/08 12:29:38;;;;;;;;;;;17.40;99.90;;;;;;8351646;28;20050;-64
2021/07/08 12:33:51;;;;;;;;;;;17.10;99.90;;;;;;8329828;28;19909;-66
2021/07/08 12:37:55;;;;;;;;;;;16.80;99.90;;;;;;8307503;28;19912;-67
2021/07/08 12:41:56;;;;;;;;;;;16.70;99.90;;;;;;8307396;28;20048;-67
2021/07/08 12:45:56;;;;;;;;;;;16.70;99.90;;;;;;8335612;28;20326;-66
2021/07/08 12:49:58;;;;;;;;;;;16.80;99.90;;;;;;8358216;28;19911;-66
2021/07/08 12:53:59;;;;;;;;;;;17.00;99.90;;;;;;8357910;28;19995;-66
2021/07/08 12:58:03;;;;;;;;;;;17.60;99.90;;;;;;8358369;28;19905;-66
2021/07/08 13:02:05;;;;;;;;;;;17.90;99.90;;;;;;8354221;28;19917;-66
2021/07/08 13:06:07;;;;;;;;;;;18.00;99.90;;;;;;8347068;28;19940;-66
2021/07/08 13:10:09;;;;;;;;;;;18.10;99.90;;;;;;8332018;28;19912;-67
2021/07/08 13:14:19;;;;;;;;;;;18.90;99.90;;;;;;8338386;28;19908;-68
2021/07/08 13:18:26;;;;;;;;;;;19.20;99.90;;;;;;8351014;28;19920;-65
2021/07/08 13:22:35;;;;;;;;;;;19.40;99.90;;;;;;8343628;28;20428;-65
2021/07/08 13:26:44;;;;;;;;;;;18.60;99.90;;;;;;8333459;28;19919;-66
2021/07/08 13:30:55;;;;;;;;;;;17.90;99.90;;;;;;8331115;28;19996;-65
2021/07/08 13:34:56;;;;;;;;;;;17.60;99.90;;;;;;8350797;28;19919;-66
2021/07/08 13:38:57;;;;;;;;;;;17.50;99.90;;;;;;8360367;28;19912;-66
2021/07/08 13:43:08;;;;;;;;;;;18.00;99.90;;;;;;8354583;28;19909;-65
2021/07/08 13:47:09;;;;;;;;;;;18.80;99.90;;;;;;8357138;28;19955;-66
2021/07/08 13:51:10;;;;;;;;;;;19.70;99.90;;;;;;8360375;28;19980;-65
2021/07/08 13:55:12;;;;;;;;;;;19.40;99.90;;;;;;8344402;28;20278;-67
2021/07/08 13:59:13;;;;;;;;;;;19.50;99.90;;;;;;8310081;28;19919;-65
2021/07/08 14:03:13;;;;;;;;;;;19.60;99.90;;;;;;8333416;28;20367;-64
2021/07/08 14:07:14;;;;;;;;;;;19.30;99.90;;;;;;8334677;28;19909;-64
2021/07/08 14:11:15;;;;;;;;;;;19.20;99.90;;;;;;8329469;28;19905;-64
2021/07/08 14:15:15;;;;;;;;;;;19.10;99.90;;;;;;8358316;28;19909;-65
2021/07/08 14:19:16;;;;;;;;;;;19.40;99.90;;;;;;8352711;28;19916;-64
2021/07/08 14:23:18;;;;;;;;;;;19.70;99.90;;;;;;8354388;28;20375;-65
2021/07/08 14:27:18;;;;;;;;;;;19.50;99.90;;;;;;8343832;28;19916;-64
2021/07/08 14:31:19;;;;;;;;;;;19.40;99.90;;;;;;8339276;28;20011;-65
2021/07/08 14:35:19;;;;;;;;;;;19.80;99.90;;;;;;8338812;28;20460;-65
2021/07/08 14:39:20;;;;;;;;;;;19.80;99.90;;;;;;8337392;28;19966;-64
2021/07/08 14:43:41;;;;;;;;;;;19.70;99.90;;;;;;8334050;28;19913;-65
2021/07/08 14:47:42;;;;;;;;;;;19.60;99.90;;;;;;8312899;28;20053;-65
2021/07/08 14:51:43;;;;;;;;;;;19.30;99.90;;;;;;8348427;28;19920;-64
2021/07/08 14:55:43;;;;;;;;;;;19.30;99.90;;;;;;8357951;28;20267;-65
2021/07/08 14:59:44;;;;;;;;;;;19.30;99.90;;;;;;8341453;28;19913;-64
2021/07/08 15:03:45;;;;;;;;;;;19.40;99.90;;;;;;8335275;28;19908;-64
2021/07/08 15:07:45;;;;;;;;;;;19.40;99.90;;;;;;8360469;28;19939;-64
2021/07/08 15:11:45;;;;;;;;;;;19.60;99.90;;;;;;8354991;28;19935;-64
2021/07/08 15:15:46;;;;;;;;;;;19.90;99.90;;;;;;8358305;28;19912;-65
2021/07/08 15:19:46;;;;;;;;;;;19.90;99.90;;;;;;8345862;28;19913;-64
2021/07/08 15:23:47;;;;;;;;;;;20.00;99.90;;;;;;8334230;28;19937;-64
2021/07/08 15:27:48;;;;;;;;;;;20.20;99.90;;;;;;8339152;28;19948;-64
2021/07/08 15:31:48;;;;;;;;;;;20.00;99.90;;;;;;8341385;28;19936;-64
2021/07/08 15:35:50;;;;;;;;;;;19.80;99.90;;;;;;8338885;28;19917;-64
2021/07/08 15:39:51;;;;;;;;;;;19.90;99.90;;;;;;8335347;28;20364;-64
2021/07/08 15:43:51;;;;;;;;;;;20.30;99.90;;;;;;8341974;28;19953;-65
2021/07/08 15:47:52;;;;;;;;;;;20.80;99.90;;;;;;8339893;28;19913;-64
2021/07/08 15:51:52;;;;;;;;;;;21.30;99.90;;;;;;8341341;28;20318;-63
2021/07/08 15:55:53;;;;;;;;;;;21.60;99.90;;;;;;8345032;28;19913;-64
2021/07/08 15:59:53;;;;;;;;;;;21.30;99.90;;;;;;8357882;23;19983;-63
2021/07/08 16:03:54;;;;;;;;;;;21.30;99.90;;;;;;8208833;28;19936;-63
2021/07/08 16:07:54;;;;;;;;;;;21.00;99.90;;;;;;8221548;28;20376;-62
2021/07/08 16:11:55;;;;;;;;;;;21.00;99.90;;;;;;8210417;28;19918;-63
2021/07/08 16:15:55;;;;;;;;;;;20.70;99.90;;;;;;8207985;28;20262;-62
2021/07/08 16:19:56;;;;;;;;;;;20.30;99.90;;;;;;8191567;29;19922;-64
2021/07/08 16:23:56;;;;;;;;;;;19.90;99.90;;;;;;8210169;28;19917;-63
2021/07/08 16:27:57;;;;;;;;;;;20.00;99.90;;;;;;8222332;28;19910;-63
2021/07/08 16:31:57;;;;;;;;;;;20.30;99.90;;;;;;8213822;28;19910;-63
2021/07/08 16:35:58;;;;;;;;;;;20.20;99.90;;;;;;8208704;28;19963;-63
2021/07/08 16:39:58;;;;;;;;;;;20.20;99.90;;;;;;8209723;28;19953;-63
2021/07/08 16:43:59;;;;;;;;;;;20.10;99.90;;;;;;8215701;28;19940;-63
2021/07/08 16:48:02;;;;;;;;;;;19.90;99.90;;;;;;8201250;28;19915;-63
2021/07/08 16:52:03;;;;;;;;;;;19.70;99.90;;;;;;8197645;28;19952;-63
2021/07/08 16:56:03;;;;;;;;;;;19.50;99.90;;;;;;8217405;28;19955;-63
2021/07/08 17:00:04;;;;;;;;;;;19.50;99.90;;;;;;8200735;28;19914;-63
2021/07/08 17:04:05;;;;;;;;;;;19.40;99.90;;;;;;8202706;28;19956;-63
2021/07/08 17:08:05;;;;;;;;;;;19.20;99.90;;;;;;8211971;28;19914;-63
2021/07/08 17:12:08;;;;;;;;;;;19.00;99.90;;;;;;8221653;28;19916;-64
2021/07/08 17:16:08;;;;;;;;;;;18.90;99.90;;;;;;8295724;28;19906;-62
2021/07/08 17:20:10;;;;;;;;;;;18.80;99.90;;;;;;8278675;28;19911;-62
2021/07/08 17:24:11;;;;;;;;;;;18.80;99.90;;;;;;8281334;28;19912;-63
2021/07/08 17:28:11;;;;;;;;;;;18.60;99.90;;;;;;8212888;28;20061;-63
2021/07/08 17:32:12;;;;;;;;;;;18.60;99.90;;;;;;8199179;28;19907;-63
2021/07/08 17:36:12;;;;;;;;;;;18.50;99.90;;;;;;8212559;28;19910;-63
2021/07/08 17:40:14;;;;;;;;;;;18.50;99.90;;;;;;8210285;28;19921;-62
2021/07/08 17:44:14;;;;;;;;;;;18.40;99.90;;;;;;8213997;28;19913;-64
2021/07/08 17:48:15;;;;;;;;;;;18.40;99.90;;;;;;8224846;28;19956;-63
2021/07/08 17:52:15;;;;;;;;;;;18.40;99.90;;;;;;8287338;28;19937;-65
2021/07/08 17:56:16;;;;;;;;;;;18.20;99.90;;;;;;8277337;28;19917;-64
2021/07/08 18:00:20;;;;;;;;;;;18.10;99.90;;;;;;8218983;28;19984;-64
2021/07/08 18:04:20;;;;;;;;;;;18.10;99.90;;;;;;8209948;28;19944;-64
2021/07/08 18:08:21;;;;;;;;;;;17.90;99.90;;;;;;8209625;28;19910;-64
2021/07/08 18:12:22;;;;;;;;;;;17.90;99.90;;;;;;8274156;28;19910;-64
2021/07/08 18:16:22;;;;;;;;;;;17.70;99.90;;;;;;8209818;28;19993;-64
2021/07/08 18:20:24;;;;;;;;;;;17.60;99.90;;;;;;8276461;28;19917;-64
2021/07/08 18:24:24;;;;;;;;;;;17.50;99.90;;;;;;8278496;28;19910;-64
2021/07/08 18:28:25;;;;;;;;;;;17.40;99.90;;;;;;8208851;28;20037;-64
2021/07/08 18:32:25;;;;;;;;;;;17.40;99.90;;;;;;8273957;28;19934;-63
2021/07/08 18:36:26;;;;;;;;;;;17.30;99.90;;;;;;8214657;28;19914;-64
2021/07/08 18:40:27;;;;;;;;;;;17.30;99.90;;;;;;8195436;28;19956;-63
2021/07/08 18:44:27;;;;;;;;;;;17.10;99.90;;;;;;8208672;28;19922;-66
2021/07/08 18:48:28;;;;;;;1.30;1.20;;;17.10;99.90;;;;;;8213862;28;20490;-67
2021/07/08 18:52:28;;;;;;;1.92;0.60;;;16.90;99.90;;;;;;8219899;28;20138;-66
2021/07/08 18:56:29;;;;;;;1.08;0.77;;;16.40;99.90;;;;;;8219283;28;20023;-66
2021/07/08 19:00:35;;;;;;;;;;;16.10;99.90;;;;;;8289290;28;20039;-66
2021/07/08 19:04:36;;;;;;;;;;;15.80;99.90;;;;;;8222557;28;20432;-65
2021/07/08 19:08:37;;;;;;;;;;;15.70;99.90;;;;;;8195614;28;19910;-66
2021/07/08 19:12:37;;;;;;;;;;;15.60;99.90;;;;;;8205201;28;19963;-66
2021/07/08 19:16:38;;;;;;;;;;;15.40;99.90;;;;;;8218135;28;20396;-66
2021/07/08 19:20:39;;;;;;;;;;;15.20;99.90;;;;;;8211184;28;19918;-66
2021/07/08 19:24:42;;;;;;;;;;;15.10;99.90;;;;;;8275303;28;20002;-66
2021/07/08 19:28:42;;;;;;;;;;;15.20;99.90;;;;;;8217871;28;19917;-66
2021/07/08 19:32:45;;;;;;;;;;;15.10;99.90;;;;;;8287901;28;19914;-66
2021/07/08 19:36:45;;;;;;;;;;;15.00;99.90;;;;;;8211197;28;19960;-66
2021/07/08 19:40:46;;;;;;;;;;;15.00;99.90;;;;;;8288264;28;19914;-66
2021/07/08 19:44:46;;;;;;;;;;;15.00;99.90;;;;;;8288414;28;19906;-66
2021/07/08 19:48:47;;;;;;;;;;;15.00;99.90;;;;;;8204914;28;19906;-66
2021/07/08 19:52:47;;;;;;;;;;;14.80;99.90;;;;;;8266736;28;19956;-66
2021/07/08 19:56:49;;;;;;;;;;;14.90;99.90;;;;;;8204702;28;19917;-66
2021/07/08 20:00:50;;;;;;;;;;;15.00;99.90;;;;;;8211227;28;19918;-67
2021/07/08 20:04:50;;;;;;;;;;;15.00;99.90;;;;;;8202854;28;20308;-66
2021/07/08 20:08:51;;;;;;;;;;;15.00;99.90;;;;;;8254996;28;19915;-66
2021/07/08 20:12:51;;;;;;;;;;;15.20;99.90;;;;;;8198140;28;19918;-66
2021/07/08 20:16:51;;;;;;;;;;;15.00;99.90;;;;;;8221812;28;19910;-66
2021/07/08 20:20:52;;;;;;;;;;;15.00;99.90;;;;;;8222972;28;19910;-66
2021/07/08 20:24:52;;;;;;;;;;;15.00;99.90;;;;;;8216379;28;19989;-66
2021/07/08 20:28:53;;;;;;;;;;;15.00;99.90;;;;;;8191354;29;20113;-67
2021/07/08 20:32:53;;;;;;;;;;;15.30;99.90;;;;;;8276678;28;19913;-66
2021/07/08 20:36:54;;;;;;;;;;;15.30;99.90;;;;;;8299802;28;19914;-66
2021/07/08 20:40:55;;;;;;;;;;;15.20;99.90;;;;;;8198341;28;19968;-66
2021/07/08 20:44:55;;;;;;;;;;;15.20;99.90;;;;;;8257643;28;19907;-67
2021/07/08 20:48:56;;;;;;;;;;;15.10;99.90;;;;;;8191505;29;19906;-66
2021/07/08 20:52:56;;;;;;;;;;;15.10;99.90;;;;;;8198888;28;19953;-66
2021/07/08 20:56:57;;;;;;;;;;;15.20;99.90;;;;;;8223161;28;19906;-66
2021/07/08 21:00:57;;;;;;;;;;;15.10;99.90;;;;;;8223135;28;19979;-67
2021/07/08 21:04:58;;;;;;;;;;;15.20;99.90;;;;;;8223391;28;20380;-66
2021/07/08 21:08:58;;;;;;;;;;;15.40;99.90;;;;;;8222850;28;20398;-66
2021/07/08 21:12:59;;;;;;;;;;;15.40;99.90;;;;;;8223012;28;20384;-66
2021/07/08 21:16:59;;;;;;;;;;;15.30;99.90;;;;;;8222785;28;19906;-66
2021/07/08 21:21:00;;;;;;;;;;;15.20;99.90;;;;;;8223102;28;19967;-66
2021/07/08 21:25:00;;;;;;;;;;;15.10;99.90;;;;;;8222872;28;20001;-66
2021/07/08 21:29:01;;;;;;;;;;;15.20;99.90;;;;;;8222482;28;19932;-66
2021/07/08 21:33:02;;;;;;;;;;;15.30;99.90;;;;;;8222500;28;19910;-66
2021/07/08 21:37:03;;;;;;;;;;;15.30;99.90;;;;;;8226883;28;19941;-66
2021/07/08 21:41:03;;;;;;;;;;;15.40;99.90;;;;;;8295017;28;20391;-66
2021/07/08 21:45:04;;;;;;;;;;;15.30;99.90;;;;;;8227956;28;19993;-67
2021/07/08 21:49:05;;;;;;;;;;;15.30;99.90;;;;;;8227480;28;20268;-66
2021/07/08 21:53:06;;;;;;;;;;;15.20;99.90;;;;;;8227784;28;19912;-66
2021/07/08 21:57:07;;;;;;;;;;;15.10;99.90;;;;;;8294275;28;19910;-67
2021/07/08 22:01:07;;;;;;;;;;;15.10;99.90;;;;;;8227555;28;20379;-66
2021/07/08 22:05:09;;;;;;;;;;;15.40;99.90;;;;;;8227772;28;19906;-66
2021/07/08 22:09:09;;;;;;;;;;;15.40;99.90;;;;;;8227330;28;20053;-66
2021/07/08 22:13:10;;;;;;;;;;;15.40;99.90;;;;;;8227476;28;19906;-66
2021/07/08 22:17:10;;;;;;;;;;;15.40;99.90;;;;;;8227035;28;19907;-66
2021/07/08 22:21:11;;;;;;;;;;;15.30;99.90;;;;;;8310796;28;20013;-66
2021/07/08 22:25:11;;;;;;;;;;;15.30;99.90;;;;;;8227339;28;19946;-67
2021/07/08 22:29:12;;;;;;;;;;;15.30;99.90;;;;;;8226704;28;19906;-66
2021/07/08 22:33:12;;;;;;;;;;;15.30;99.90;;;;;;8226514;28;19906;-66
2021/07/08 22:37:14;;;;;;;;;;;15.30;99.90;;;;;;8226534;28;19906;-66
2021/07/08 22:41:15;;;;;;;;;;;15.30;99.90;;;;;;8293297;28;20024;-66
2021/07/08 22:45:15;;;;;;;;;;;15.40;99.90;;;;;;8226323;28;19913;-66
2021/07/08 22:49:16;;;;;;;;;;;15.40;99.90;;;;;;8225509;28;20580;-66
2021/07/08 22:53:18;;;;;;;;;;;15.40;99.90;;;;;;8226119;28;20399;-66
2021/07/08 22:57:19;;;;;;;;;;;15.40;99.90;;;;;;8309128;28;19906;-66
2021/07/08 23:01:22;;;;;;;;;;;15.50;99.90;;;;;;8225893;28;19979;-66
2021/07/08 23:05:22;;;;;;;;;;;15.50;99.90;;;;;;8225752;28;19939;-67
2021/07/08 23:09:23;;;;;;;;;;;15.50;99.90;;;;;;8298035;28;20397;-66
2021/07/08 23:13:25;;;;;;;;;;;15.50;99.90;;;;;;8223144;28;20402;-66
2021/07/08 23:17:26;;;;;;;;;;;15.50;99.90;;;;;;8291647;28;20368;-66
2021/07/08 23:21:29;;;;;;;;;;;15.60;99.90;;;;;;8292114;28;20010;-66
2021/07/08 23:25:30;;;;;;;;;;;15.40;99.90;;;;;;8276454;28;20170;-67
2021/07/08 23:29:30;;;;;;;;;;;15.50;99.90;;;;;;8193030;28;19911;-66